createdAt,value
2019-01-11T00:02:23.471Z,2.70
2019-01-11T00:04:53.522Z,2.10
2019-01-11T00:07:23.059Z,2.80
2019-01-11T00:09:52.620Z,2.60
2019-01-11T00:12:22.323Z,2.50
2019-01-11T00:14:52.321Z,2.60
2019-01-11T00:17:21.931Z,2.60
2019-01-11T00:19:51.503Z,2.43
2019-01-11T00:22:21.202Z,2.80
2019-01-11T00:24:50.830Z,2.63
2019-01-11T00:27:20.388Z,2.83
2019-01-11T00:29:50.034Z,2.80
2019-01-11T00:32:19.575Z,2.80
2019-01-11T00:34:49.118Z,2.77
2019-01-11T00:37:18.712Z,3.00
2019-01-11T00:39:48.585Z,2.70
2019-01-11T00:42:18.135Z,2.43
2019-01-11T00:44:47.661Z,2.50
2019-01-11T00:47:17.214Z,2.60
2019-01-11T00:49:47.731Z,2.80
2019-01-11T00:52:17.353Z,2.60
2019-01-11T00:54:47.199Z,2.83
2019-01-11T00:57:16.889Z,4.00
2019-01-11T00:59:46.435Z,3.50
2019-01-11T01:02:16.975Z,3.63
2019-01-11T01:04:46.523Z,3.87
2019-01-11T01:07:16.063Z,4.10
2019-01-11T01:09:45.615Z,3.60
2019-01-11T01:12:15.174Z,3.87
2019-01-11T01:14:44.730Z,4.20
2019-01-11T01:17:14.284Z,3.80
2019-01-11T01:19:43.837Z,3.70
2019-01-11T01:22:13.558Z,4.67
2019-01-11T01:24:43.117Z,4.40
2019-01-11T01:27:13.014Z,4.33
2019-01-11T01:29:42.544Z,4.33
2019-01-11T01:32:12.127Z,3.80
2019-01-11T01:34:41.663Z,3.90
2019-01-11T01:37:11.235Z,3.63
2019-01-11T01:39:40.782Z,3.67
2019-01-11T01:42:10.334Z,3.60
2019-01-11T01:44:39.894Z,3.90
2019-01-11T01:47:09.433Z,3.40
2019-01-11T01:49:39.006Z,3.47
2019-01-11T01:52:08.659Z,3.83
2019-01-11T01:54:38.287Z,3.60
2019-01-11T01:57:10.967Z,3.73
2019-01-11T01:59:40.535Z,3.60
2019-01-11T02:02:10.069Z,3.80
2019-01-11T02:04:39.854Z,3.87
2019-01-11T02:07:09.458Z,3.73
2019-01-11T02:09:39.005Z,3.30
2019-01-11T02:12:08.535Z,3.23
2019-01-11T02:14:38.082Z,4.03
2019-01-11T02:17:07.625Z,3.60
2019-01-11T02:19:37.237Z,3.60
2019-01-11T02:22:06.951Z,3.30
2019-01-11T02:24:36.491Z,3.20
2019-01-11T02:27:06.032Z,3.30
2019-01-11T02:29:35.866Z,3.40
2019-01-11T02:32:05.442Z,3.50
2019-01-11T02:34:35.090Z,3.30
2019-01-11T02:37:04.664Z,3.20
2019-01-11T02:39:34.215Z,3.20
2019-01-11T02:42:04.749Z,3.30
2019-01-11T02:44:34.299Z,3.50
2019-01-11T02:47:03.843Z,3.00
2019-01-11T02:49:39.821Z,2.93
2019-01-11T02:52:05.017Z,2.70
2019-01-11T02:54:34.636Z,3.20
2019-01-11T02:57:04.175Z,2.80
2019-01-11T02:59:33.767Z,3.30
2019-01-11T03:02:03.582Z,3.50
2019-01-11T03:04:33.120Z,3.20
2019-01-11T03:07:02.673Z,3.13
2019-01-11T03:09:32.302Z,3.00
2019-01-11T03:12:01.855Z,3.60
2019-01-11T03:14:31.405Z,3.30
2019-01-11T03:17:00.976Z,2.70
2019-01-11T03:19:30.527Z,3.27
2019-01-11T03:22:00.094Z,3.20
2019-01-11T03:24:29.650Z,3.43
2019-01-11T03:26:59.198Z,3.13
2019-01-11T03:29:28.802Z,3.20
2019-01-11T03:31:58.376Z,2.93
2019-01-11T03:34:28.118Z,2.93
2019-01-11T03:36:57.667Z,3.40
2019-01-11T03:39:27.266Z,3.03
2019-01-11T03:42:15.951Z,3.30
2019-01-11T03:44:45.491Z,3.43
2019-01-11T03:47:15.123Z,2.70
2019-01-11T03:49:44.698Z,3.10
2019-01-11T03:52:14.237Z,3.23
2019-01-11T03:54:43.930Z,2.90
2019-01-11T03:57:14.487Z,3.73
2019-01-11T03:59:44.009Z,4.13
2019-01-11T04:02:13.907Z,3.20
2019-01-11T04:04:43.449Z,4.13
2019-01-11T04:07:13.006Z,3.40
2019-01-11T04:09:42.646Z,3.20
2019-01-11T04:12:12.599Z,3.40
2019-01-11T04:14:42.200Z,3.20
2019-01-11T04:17:11.765Z,3.90
2019-01-11T04:19:41.399Z,7.00
2019-01-11T04:22:20.780Z,6.07
2019-01-11T04:25:03.632Z,3.93
2019-01-11T04:27:33.555Z,4.20
2019-01-11T04:30:03.191Z,3.90
2019-01-11T04:32:32.734Z,3.77
2019-01-11T04:35:02.280Z,5.40
2019-01-11T04:37:31.835Z,4.23
2019-01-11T04:40:01.640Z,4.87
2019-01-11T04:42:31.454Z,4.70
2019-01-11T04:45:01.001Z,7.77
2019-01-11T04:47:30.621Z,3.50
2019-01-11T04:50:00.302Z,3.90
2019-01-11T04:52:29.888Z,4.20
2019-01-11T04:54:59.442Z,5.33
2019-01-11T04:57:29.019Z,7.57
2019-01-11T04:59:58.587Z,7.47
2019-01-11T05:02:28.452Z,3.57
2019-01-11T05:04:58.266Z,3.97
2019-01-11T05:07:27.811Z,3.90
2019-01-11T05:09:57.370Z,3.40
2019-01-11T05:12:27.200Z,3.33
2019-01-11T05:14:56.792Z,3.27
2019-01-11T05:17:26.364Z,3.03
2019-01-11T05:19:55.906Z,3.80
2019-01-11T05:22:25.459Z,4.07
2019-01-11T05:24:55.090Z,3.63
2019-01-11T05:27:24.926Z,3.40
2019-01-11T05:29:54.567Z,4.87
2019-01-11T05:32:24.205Z,3.77
2019-01-11T05:34:53.753Z,3.20
2019-01-11T05:37:23.283Z,4.60
2019-01-11T05:39:52.818Z,6.07
2019-01-11T05:42:22.358Z,4.17
2019-01-11T05:44:52.328Z,3.50
2019-01-11T05:47:22.037Z,4.33
2019-01-11T05:49:51.949Z,3.80
2019-01-11T05:52:21.910Z,3.50
2019-01-11T05:54:51.462Z,3.80
2019-01-11T05:57:21.083Z,3.57
2019-01-11T05:59:51.492Z,4.20
2019-01-11T06:02:21.515Z,4.20
2019-01-11T06:04:55.271Z,4.37
2019-01-11T06:07:31.575Z,4.20
2019-01-11T06:10:01.219Z,4.40
2019-01-11T06:12:30.767Z,4.50
2019-01-11T06:15:00.472Z,5.00
2019-01-11T06:17:30.102Z,4.77
2019-01-11T06:19:59.636Z,5.20
2019-01-11T06:22:29.354Z,5.53
2019-01-11T06:24:59.210Z,5.33
2019-01-11T06:27:28.746Z,4.47
2019-01-11T06:29:58.542Z,5.50
2019-01-11T06:32:28.474Z,6.10
2019-01-11T06:34:58.002Z,5.10
2019-01-11T06:37:27.629Z,6.03
2019-01-11T06:39:57.662Z,6.00
2019-01-11T06:42:27.651Z,5.40
2019-01-11T06:44:58.163Z,6.00
2019-01-11T06:47:27.829Z,5.93
2019-01-11T06:49:57.348Z,6.00
2019-01-11T06:52:26.907Z,6.27
2019-01-11T06:54:56.692Z,5.90
2019-01-11T06:57:26.570Z,5.80
2019-01-11T06:59:56.110Z,6.20
2019-01-11T07:02:25.694Z,6.30
2019-01-11T07:04:55.383Z,6.83
2019-01-11T07:07:25.309Z,14.53
2019-01-11T07:09:56.360Z,7.93
2019-01-11T07:12:26.244Z,7.67
2019-01-11T07:14:55.843Z,6.70
2019-01-11T07:17:25.470Z,5.93
2019-01-11T07:19:55.327Z,7.17
2019-01-11T07:22:24.941Z,6.17
2019-01-11T07:24:54.470Z,5.60
2019-01-11T07:27:25.134Z,5.97
2019-01-11T07:29:54.713Z,5.47
2019-01-11T07:32:24.403Z,6.80
2019-01-11T07:34:53.935Z,6.00
2019-01-11T07:37:23.494Z,6.47
2019-01-11T07:39:53.098Z,6.40
2019-01-11T07:42:22.649Z,6.53
2019-01-11T07:44:52.299Z,7.00
2019-01-11T07:47:22.006Z,6.40
2019-01-11T07:49:51.665Z,7.10
2019-01-11T07:52:21.211Z,7.13
2019-01-11T07:54:51.183Z,6.83
2019-01-11T07:57:21.024Z,6.60
2019-01-11T07:59:51.310Z,6.33
2019-01-11T08:02:20.827Z,7.63
2019-01-11T08:04:50.442Z,7.70
2019-01-11T08:07:21.326Z,8.27
2019-01-11T08:09:50.998Z,7.80
2019-01-11T08:12:21.683Z,6.90
2019-01-11T08:14:51.724Z,7.27
2019-01-11T08:17:21.368Z,7.93
2019-01-11T08:19:51.211Z,6.40
2019-01-11T08:22:34.202Z,7.50
2019-01-11T08:25:04.638Z,8.03
2019-01-11T08:27:34.195Z,7.57
2019-01-11T08:30:04.394Z,10.27
2019-01-11T08:32:33.937Z,8.83
2019-01-11T08:35:04.317Z,7.43
2019-01-11T08:37:34.044Z,8.37
2019-01-11T08:40:03.678Z,13.60
2019-01-11T08:42:33.314Z,13.50
2019-01-11T08:45:04.314Z,33.97
2019-01-11T08:47:34.023Z,17.23
2019-01-11T08:50:04.770Z,11.77
2019-01-11T08:52:34.495Z,12.40
2019-01-11T08:55:04.331Z,12.77
2019-01-11T08:57:33.894Z,9.47
2019-01-11T09:00:04.214Z,10.07
2019-01-11T09:02:33.823Z,8.73
2019-01-11T09:05:03.455Z,13.43
2019-01-11T09:07:33.197Z,16.17
2019-01-11T09:10:02.734Z,10.23
2019-01-11T09:12:32.318Z,9.33
2019-01-11T09:15:01.883Z,12.73
2019-01-11T09:17:32.951Z,12.40
2019-01-11T09:20:02.524Z,11.43
2019-01-11T09:22:32.078Z,11.60
2019-01-11T09:25:01.634Z,9.70
2019-01-11T09:27:31.270Z,11.07
2019-01-11T09:30:01.013Z,9.40
2019-01-11T09:32:31.735Z,8.37
2019-01-11T09:35:01.503Z,7.80
2019-01-11T09:37:31.526Z,9.30
2019-01-11T09:40:01.460Z,10.17
2019-01-11T09:42:32.074Z,8.97
2019-01-11T09:45:01.627Z,9.03
2019-01-11T09:47:31.234Z,10.27
2019-01-11T09:50:00.889Z,8.73
2019-01-11T09:52:30.462Z,8.97
2019-01-11T09:55:00.191Z,10.70
2019-01-11T09:57:29.929Z,16.87
2019-01-11T09:59:59.829Z,13.73
2019-01-11T10:02:47.133Z,11.73
2019-01-11T10:05:16.762Z,11.00
2019-01-11T10:07:46.616Z,13.80
2019-01-11T10:10:16.497Z,14.27
2019-01-11T10:12:46.344Z,13.03
2019-01-11T10:15:16.436Z,11.63
2019-01-11T10:17:47.411Z,11.00
2019-01-11T10:20:17.011Z,11.37
2019-01-11T10:22:46.604Z,10.17
2019-01-11T10:25:16.180Z,9.93
2019-01-11T10:27:46.730Z,11.20
2019-01-11T10:30:18.478Z,11.50
2019-01-11T10:32:48.161Z,12.20
2019-01-11T10:35:17.881Z,10.80
2019-01-11T10:37:47.917Z,13.43
2019-01-11T10:40:18.305Z,12.80
2019-01-11T10:42:49.891Z,11.27
2019-01-11T10:45:21.656Z,12.93
2019-01-11T10:47:53.314Z,12.70
2019-01-11T10:50:23.034Z,9.87
2019-01-11T10:52:52.923Z,10.97
2019-01-11T10:55:22.529Z,11.10
2019-01-11T10:57:52.103Z,11.60
2019-01-11T11:00:23.832Z,10.80
2019-01-11T11:02:54.143Z,13.10
2019-01-11T11:05:23.739Z,10.40
2019-01-11T11:07:53.314Z,10.83
2019-01-11T11:10:22.899Z,10.83
2019-01-11T11:12:53.058Z,11.87
2019-01-11T11:15:23.403Z,10.57
2019-01-11T11:17:52.943Z,12.20
2019-01-11T11:20:22.919Z,12.10
2019-01-11T11:22:53.567Z,12.30
2019-01-11T11:25:23.337Z,12.00
2019-01-11T11:27:52.950Z,15.97
2019-01-11T11:30:22.606Z,12.23
2019-01-11T11:32:56.046Z,13.47
2019-01-11T11:35:27.769Z,11.60
2019-01-11T11:37:58.336Z,12.17
2019-01-11T11:40:29.543Z,12.90
2019-01-11T11:42:59.187Z,16.03
2019-01-11T11:45:28.783Z,15.47
2019-01-11T11:47:58.345Z,17.47
2019-01-11T11:50:27.987Z,14.33
2019-01-11T11:52:57.843Z,15.90
2019-01-11T11:55:27.594Z,14.13
2019-01-11T11:57:57.747Z,12.53
2019-01-11T12:00:27.660Z,13.10
2019-01-11T12:02:57.311Z,19.50
2019-01-11T12:05:26.950Z,38.67
2019-01-11T12:07:56.499Z,24.83
2019-01-11T12:10:26.123Z,23.43
2019-01-11T12:12:55.760Z,14.87
2019-01-11T12:15:25.407Z,17.67
2019-01-11T12:17:55.347Z,15.87
2019-01-11T12:20:29.825Z,12.93
2019-01-11T12:22:59.531Z,20.47
2019-01-11T12:25:29.082Z,30.40
2019-01-11T12:27:58.741Z,17.37
2019-01-11T12:30:28.328Z,16.37
2019-01-11T12:32:58.040Z,17.70
2019-01-11T12:35:27.582Z,15.27
2019-01-11T12:37:57.561Z,12.60
2019-01-11T12:40:27.239Z,12.70
2019-01-11T12:42:57.165Z,12.63
2019-01-11T12:45:26.749Z,13.37
2019-01-11T12:47:56.326Z,28.20
2019-01-11T12:50:27.074Z,17.30
2019-01-11T12:52:56.789Z,13.10
2019-01-11T12:55:26.341Z,11.63
2019-01-11T12:57:56.025Z,12.93
2019-01-11T13:00:26.056Z,15.07
2019-01-11T13:02:55.612Z,15.10
2019-01-11T13:05:25.639Z,20.57
2019-01-11T13:07:55.320Z,16.13
2019-01-11T13:10:24.941Z,13.23
2019-01-11T13:12:54.815Z,11.60
2019-01-11T13:15:25.090Z,14.70
2019-01-11T13:17:54.658Z,14.13
2019-01-11T13:20:24.407Z,14.50
2019-01-11T13:22:54.291Z,15.20
2019-01-11T13:25:23.843Z,13.97
2019-01-11T13:27:53.410Z,13.90
2019-01-11T13:30:23.023Z,14.87
2019-01-11T13:32:52.662Z,12.30
2019-01-11T13:35:22.501Z,14.10
2019-01-11T13:37:52.109Z,13.90
2019-01-11T13:40:25.555Z,16.03
2019-01-11T13:42:55.275Z,15.30
2019-01-11T13:45:25.325Z,13.50
2019-01-11T13:47:54.953Z,13.70
2019-01-11T13:50:36.142Z,15.37
2019-01-11T13:53:07.578Z,16.40
2019-01-11T13:55:37.154Z,15.60
2019-01-11T13:58:06.808Z,16.57
2019-01-11T14:00:36.496Z,15.47
2019-01-11T14:03:06.534Z,24.37
2019-01-11T14:05:37.013Z,22.80
2019-01-11T14:08:06.977Z,20.70
2019-01-11T14:10:36.906Z,16.37
2019-01-11T14:13:06.488Z,16.83
2019-01-11T14:15:36.191Z,16.33
2019-01-11T14:18:06.752Z,16.93
2019-01-11T14:20:36.581Z,18.17
2019-01-11T14:23:06.432Z,18.17
2019-01-11T14:25:36.013Z,18.10
2019-01-11T14:28:33.430Z,20.07
2019-01-11T14:31:03.174Z,24.63
2019-01-11T14:33:32.743Z,21.43
2019-01-11T14:36:02.312Z,20.37
2019-01-11T14:38:31.999Z,20.10
2019-01-11T14:41:12.174Z,18.47
2019-01-11T14:43:41.820Z,22.13
2019-01-11T14:46:11.406Z,20.13
2019-01-11T14:48:40.947Z,19.93
2019-01-11T14:51:10.650Z,26.10
2019-01-11T14:53:40.478Z,18.30
2019-01-11T14:56:10.023Z,18.30
2019-01-11T14:58:39.618Z,22.30
2019-01-11T15:01:09.566Z,18.23
2019-01-11T15:03:39.177Z,16.00
2019-01-11T15:06:08.783Z,18.00
2019-01-11T15:08:38.475Z,18.17
2019-01-11T15:11:08.206Z,16.93
2019-01-11T15:13:37.880Z,17.10
2019-01-11T15:16:07.525Z,19.03
2019-01-11T15:18:37.099Z,19.67
2019-01-11T15:21:06.651Z,21.40
2019-01-11T15:23:36.306Z,17.97
2019-01-11T15:26:06.224Z,17.90
2019-01-11T15:28:35.843Z,18.80
2019-01-11T15:31:05.416Z,15.90
2019-01-11T15:33:35.523Z,15.07
2019-01-11T15:36:05.088Z,14.30
2019-01-11T15:38:34.873Z,17.57
2019-01-11T15:41:04.431Z,14.93
2019-01-11T15:43:34.025Z,14.07
2019-01-11T15:46:05.462Z,16.20
2019-01-11T15:48:42.667Z,17.43
2019-01-11T15:51:12.266Z,17.00
2019-01-11T15:53:41.999Z,15.33
2019-01-11T15:56:13.065Z,15.40
2019-01-11T15:58:42.961Z,14.63
2019-01-11T16:01:12.697Z,15.07
2019-01-11T16:03:42.334Z,17.93
2019-01-11T16:06:45.029Z,16.13
2019-01-11T16:10:05.679Z,15.57
2019-01-11T16:13:06.314Z,15.47
2019-01-11T16:15:50.535Z,13.53
2019-01-11T16:18:24.066Z,15.87
2019-01-11T16:20:54.384Z,15.83
2019-01-11T16:23:24.253Z,15.70
2019-01-11T16:25:53.795Z,17.97
2019-01-11T16:28:23.376Z,16.83
2019-01-11T16:30:53.060Z,18.20
2019-01-11T16:33:22.707Z,17.60
2019-01-11T16:35:52.269Z,15.13
2019-01-11T16:38:22.059Z,16.50
2019-01-11T16:40:52.017Z,14.93
2019-01-11T16:43:21.611Z,16.83
2019-01-11T16:45:51.538Z,13.33
2019-01-11T16:48:21.119Z,16.17
2019-01-11T16:50:50.720Z,15.90
2019-01-11T16:53:20.252Z,16.77
2019-01-11T16:55:49.962Z,14.50
2019-01-11T16:58:19.864Z,14.93
2019-01-11T17:00:49.450Z,14.67
2019-01-11T17:03:19.118Z,14.40
2019-01-11T17:05:48.745Z,18.27
2019-01-11T17:08:20.089Z,15.77
2019-01-11T17:10:50.415Z,15.33
2019-01-11T17:13:19.968Z,15.80
2019-01-11T17:15:49.537Z,15.93
2019-01-11T17:18:19.265Z,15.20
2019-01-11T17:20:48.871Z,14.43
2019-01-11T17:23:18.477Z,14.77
2019-01-11T17:25:48.054Z,13.67
2019-01-11T17:28:17.873Z,22.77
2019-01-11T17:30:47.422Z,18.50
2019-01-11T17:33:17.375Z,15.50
2019-01-11T17:35:46.960Z,14.03
2019-01-11T17:38:16.751Z,12.60
2019-01-11T17:40:46.704Z,14.37
2019-01-11T17:43:16.414Z,13.87
2019-01-11T17:45:45.978Z,15.13
2019-01-11T17:48:15.654Z,14.97
2019-01-11T17:50:45.362Z,12.70
2019-01-11T17:53:14.943Z,12.77
2019-01-11T17:55:44.565Z,12.60
2019-01-11T17:58:15.090Z,13.67
2019-01-11T18:00:45.252Z,11.93
2019-01-11T18:03:14.903Z,11.60
2019-01-11T18:05:44.762Z,12.27
2019-01-11T18:08:14.307Z,13.00
2019-01-11T18:10:44.088Z,14.60
2019-01-11T18:13:13.643Z,15.30
2019-01-11T18:15:43.322Z,18.00
2019-01-11T18:18:12.901Z,14.70
2019-01-11T18:20:43.569Z,12.97
2019-01-11T18:23:13.386Z,13.13
2019-01-11T18:25:43.422Z,15.77
2019-01-11T18:28:13.001Z,23.23
2019-01-11T18:30:42.535Z,25.03
2019-01-11T18:33:12.111Z,14.77
2019-01-11T18:35:42.001Z,14.93
2019-01-11T18:38:11.590Z,10.80
2019-01-11T18:40:41.190Z,13.00
2019-01-11T18:43:10.803Z,18.93
2019-01-11T18:45:40.366Z,12.70
2019-01-11T18:48:09.910Z,16.37
2019-01-11T18:50:39.467Z,12.83
2019-01-11T18:53:13.608Z,14.63
2019-01-11T18:55:40.324Z,14.13
2019-01-11T18:58:09.918Z,18.70
2019-01-11T19:00:39.555Z,22.33
2019-01-11T19:03:09.187Z,26.23
2019-01-11T19:05:38.853Z,18.90
2019-01-11T19:08:08.508Z,16.50
2019-01-11T19:10:38.086Z,17.00
2019-01-11T19:13:07.989Z,14.53
2019-01-11T19:15:37.566Z,12.70
2019-01-11T19:18:07.135Z,11.73
2019-01-11T19:20:36.786Z,11.87
2019-01-11T19:23:06.345Z,13.03
2019-01-11T19:25:35.989Z,12.23
2019-01-11T19:28:05.579Z,13.13
2019-01-11T19:30:35.138Z,12.37
2019-01-11T19:33:04.915Z,10.80
2019-01-11T19:35:34.558Z,12.03
2019-01-11T19:38:04.251Z,10.53
2019-01-11T19:40:33.871Z,11.60
2019-01-11T19:43:03.512Z,11.73
2019-01-11T19:45:33.066Z,10.07
2019-01-11T19:48:02.816Z,14.17
2019-01-11T19:50:32.398Z,19.53
2019-01-11T19:53:01.941Z,13.50
2019-01-11T19:55:31.481Z,16.00
2019-01-11T19:58:01.413Z,18.10
2019-01-11T20:00:31.518Z,12.60
2019-01-11T20:03:01.487Z,10.63
2019-01-11T20:05:31.112Z,11.73
2019-01-11T20:08:00.652Z,11.30
2019-01-11T20:10:32.213Z,15.33
2019-01-11T20:13:02.733Z,9.67
2019-01-11T20:15:32.314Z,9.43
2019-01-11T20:18:01.972Z,10.73
2019-01-11T20:20:32.649Z,9.60
2019-01-11T20:23:02.892Z,9.30
2019-01-11T20:25:32.504Z,9.97
2019-01-11T20:28:02.431Z,9.27
2019-01-11T20:30:32.074Z,9.93
2019-01-11T20:33:01.898Z,11.13
2019-01-11T20:35:31.507Z,10.60
2019-01-11T20:38:01.053Z,9.00
2019-01-11T20:40:30.609Z,10.43
2019-01-11T20:43:00.520Z,9.67
2019-01-11T20:45:30.403Z,8.80
2019-01-11T20:47:59.943Z,8.23
2019-01-11T20:50:29.527Z,8.57
2019-01-11T20:52:59.111Z,10.00
2019-01-11T20:55:28.766Z,7.53
2019-01-11T20:58:00.927Z,8.07
2019-01-11T21:00:32.487Z,7.57
2019-01-11T21:03:04.295Z,8.27
2019-01-11T21:05:34.000Z,8.37
2019-01-11T21:08:03.782Z,8.53
2019-01-11T21:10:33.338Z,7.87
2019-01-11T21:13:02.918Z,7.87
2019-01-11T21:15:33.140Z,8.27
2019-01-11T21:18:03.031Z,8.50
2019-01-11T21:20:32.729Z,8.10
2019-01-11T21:23:02.395Z,7.97
2019-01-11T21:25:31.930Z,8.03
2019-01-11T21:28:02.379Z,7.40
2019-01-11T21:30:32.062Z,7.77
2019-01-11T21:33:01.602Z,7.53
2019-01-11T21:35:31.912Z,7.63
2019-01-11T21:38:01.598Z,7.07
2019-01-11T21:40:31.460Z,7.80
2019-01-11T21:43:01.046Z,6.47
2019-01-11T21:45:30.586Z,8.13
2019-01-11T21:48:00.130Z,8.57
2019-01-11T21:50:29.935Z,7.00
2019-01-11T21:52:59.492Z,7.00
2019-01-11T21:55:29.030Z,11.00
2019-01-11T21:57:59.610Z,9.47
2019-01-11T22:00:38.543Z,10.57
2019-01-11T22:03:14.562Z,10.27
2019-01-11T22:05:44.110Z,15.07
2019-01-11T22:08:13.774Z,12.57
2019-01-11T22:10:43.835Z,13.97
2019-01-11T22:13:13.399Z,10.10
2019-01-11T22:15:42.962Z,9.93
2019-01-11T22:18:12.561Z,8.50
2019-01-11T22:20:42.454Z,10.30
2019-01-11T22:23:12.038Z,12.57
2019-01-11T22:25:41.594Z,11.33
2019-01-11T22:28:11.475Z,10.60
2019-01-11T22:30:41.030Z,12.53
2019-01-11T22:33:10.599Z,24.73
2019-01-11T22:35:40.166Z,17.10
2019-01-11T22:38:09.847Z,16.33
2019-01-11T22:40:39.737Z,10.80
2019-01-11T22:43:09.379Z,18.50
2019-01-11T22:45:38.946Z,20.77
2019-01-11T22:48:08.543Z,18.37
2019-01-11T22:50:38.114Z,11.67
2019-01-11T22:53:08.015Z,12.10
2019-01-11T22:55:37.566Z,15.80
2019-01-11T22:58:07.113Z,19.53
2019-01-11T23:00:49.986Z,17.57
2019-01-11T23:03:35.827Z,13.10
2019-01-11T23:06:29.264Z,12.53
2019-01-11T23:08:59.138Z,15.73
2019-01-11T23:11:42.723Z,15.33
2019-01-11T23:14:12.262Z,12.40
2019-01-11T23:17:12.178Z,18.77
2019-01-11T23:19:42.083Z,13.17
2019-01-11T23:22:11.906Z,50.27
2019-01-11T23:24:41.711Z,18.63
2019-01-11T23:27:12.669Z,12.00
2019-01-11T23:29:42.228Z,11.00
2019-01-11T23:32:12.151Z,11.17
2019-01-11T23:34:42.673Z,11.70
2019-01-11T23:37:12.254Z,12.43
2019-01-11T23:39:41.893Z,10.57
2019-01-11T23:42:11.475Z,11.33
2019-01-11T23:44:41.016Z,11.23
2019-01-11T23:47:11.035Z,11.50
2019-01-11T23:49:40.593Z,11.07
2019-01-11T23:52:10.175Z,12.83
2019-01-11T23:54:40.056Z,12.50
2019-01-11T23:57:09.617Z,12.77
2019-01-11T23:59:39.575Z,14.33
